Time;durP1;ratioP1;P1;durP2;ratioP2;P2;SDS_P1;SDS_P2;PMS_P1;PMS_P2;Temp;Humidity;BMP_temperature;BMP_pressure;BME280_temperature;BME280_humidity;BME280_pressure;Samples;Min_cycle;Max_cycle;Signal;HPM_P1;HPM_P2
2022/01/06 00:05:44;;;;;;;10.90;3.10;;;;;;;0.94;87.23;97280.55;419712;1313;97968;-43
2022/01/06 00:36:14;;;;;;;6.50;3.40;;;;;;;0.81;87.27;97287.81;419865;1314;98077;-42
2022/01/06 00:46:21;;;;;;;8.00;1.90;;;;;;;0.83;87.06;97285.16;420105;1313;111419;-41
2022/01/06 00:56:29;;;;;;;9.30;2.70;;;;;;;0.96;86.83;97296.86;419705;1313;109517;-40
2022/01/06 01:06:35;;;;;;;9.70;3.50;;;;;;;1.04;86.96;97310.55;419707;1313;96749;-40
2022/01/06 01:16:50;;;;;;;12.30;3.20;;;;;;;1.03;86.73;97308.11;419953;1313;111261;-41
2022/01/06 01:37:02;;;;;;;5.00;1.90;;;;;;;0.97;86.16;97305.68;419829;1314;97645;-39
2022/01/06 01:47:14;;;;;;;6.60;3.00;;;;;;;0.97;86.47;97312.95;419994;1313;111172;-40
2022/01/06 01:57:21;;;;;;;6.70;3.00;;;;;;;0.87;86.30;97303.50;419870;1314;108868;-41
2022/01/06 02:07:28;;;;;;;5.10;2.50;;;;;;;0.86;86.09;97298.48;419624;1312;108970;-40
2022/01/06 02:17:36;;;;;;;6.90;2.40;;;;;;;0.92;86.04;97301.38;419976;1304;98214;-39
2022/01/06 02:27:46;;;;;;;5.90;2.50;;;;;;;0.98;86.11;97314.20;417974;1316;109026;-40
2022/01/06 02:37:53;;;;;;;6.60;3.60;;;;;;;1.03;86.32;97330.05;418441;1315;97963;-40
2022/01/06 02:58:08;;;;;;;6.80;3.20;;;;;;;1.01;86.04;97355.79;418420;1314;111103;-40
2022/01/06 03:08:16;;;;;;;7.20;2.60;;;;;;;1.19;86.23;97359.89;418435;1314;107947;-40
2022/01/06 03:18:26;;;;;;;10.20;4.00;;;;;;;1.34;86.35;97362.33;418741;1314;97599;-39
2022/01/06 03:28:34;;;;;;;7.60;5.00;;;;;;;1.34;86.35;97362.67;418337;1314;111063;-40
2022/01/06 03:38:41;;;;;;;9.10;3.60;;;;;;;1.27;86.28;97365.45;418431;1314;109239;-41
2022/01/06 03:48:48;;;;;;;6.70;2.50;;;;;;;1.29;86.27;97378.43;418276;1314;108771;-40
2022/01/06 03:58:55;;;;;;;3.40;2.10;;;;;;;1.38;86.41;97370.61;417614;1317;98036;-41
2022/01/06 04:09:03;;;;;;;5.60;3.00;;;;;;;1.45;86.68;97375.27;418326;1314;106938;-40
2022/01/06 04:19:11;;;;;;;4.80;3.20;;;;;;;1.40;86.60;97385.98;418304;1314;108835;-40
2022/01/06 04:29:18;;;;;;;7.90;2.20;;;;;;;1.42;86.54;97399.38;418491;1314;97949;-40
2022/01/06 04:39:25;;;;;;;4.10;2.10;;;;;;;1.57;86.47;97407.77;418329;1315;97580;-41
2022/01/06 04:49:32;;;;;;;5.40;3.80;;;;;;;1.64;86.63;97418.91;418173;1314;109433;-40
2022/01/06 04:59:40;;;;;;;10.20;3.70;;;;;;;1.59;86.69;97430.06;418288;1314;108913;-40
2022/01/06 05:09:47;;;;;;;7.50;3.20;;;;;;;1.48;86.80;97437.98;418137;1315;97592;-40
2022/01/06 05:19:55;;;;;;;9.00;3.30;;;;;;;1.52;86.55;97436.45;418179;1314;111138;-39
2022/01/06 05:30:02;;;;;;;4.70;2.70;;;;;;;1.61;86.65;97455.43;418179;1314;109094;-40
2022/01/06 05:40:11;;;;;;;5.50;3.40;;;;;;;1.71;86.72;97459.98;418354;1315;97949;-41
2022/01/06 05:50:18;;;;;;;7.90;4.90;;;;;;;1.61;86.90;97464.17;418848;1314;108059;-40
2022/01/06 06:00:25;;;;;;;11.10;5.50;;;;;;;1.50;86.99;97474.88;418942;1314;108846;-41
2022/01/06 06:10:32;;;;;;;14.20;3.50;;;;;;;1.45;86.92;97480.62;418970;1314;97969;-40
2022/01/06 06:20:40;;;;;;;10.30;2.80;;;;;;;1.52;86.91;97479.33;419135;1314;111916;-40
2022/01/06 06:30:47;;;;;;;9.20;2.90;;;;;;;1.62;86.84;97483.41;419161;1314;108896;-40
2022/01/06 06:40:54;;;;;;;9.90;3.20;;;;;;;1.69;86.90;97507.23;414993;1314;5592499;-40
2022/01/06 06:51:02;;;;;;;10.80;6.70;;;;;;;1.40;86.40;97522.11;419027;1314;108949;-39
2022/01/06 07:01:09;;;;;;;9.60;4.40;;;;;;;1.20;87.08;97542.76;418304;1316;97993;-41
2022/01/06 07:11:16;;;;;;;6.90;4.10;;;;;;;1.08;87.26;97551.02;418975;1315;98182;-42
2022/01/06 07:21:24;;;;;;;8.20;5.10;;;;;;;1.17;87.33;97568.02;418742;1315;111332;-40
2022/01/06 07:31:31;;;;;;;7.50;6.00;;;;;;;1.19;87.24;97569.36;418803;1315;109484;-40
2022/01/06 07:41:38;;;;;;;13.30;6.80;;;;;;;1.20;87.56;97568.40;418893;1314;97964;-39
2022/01/06 07:51:45;;;;;;;33.00;13.80;;;;;;;1.17;87.56;97581.95;418925;1314;110210;-41
2022/01/06 08:01:52;;;;;;;20.70;12.10;;;;;;;1.07;87.78;97585.69;418985;1315;96797;-40
2022/01/06 08:12:00;;;;;;;19.60;12.10;;;;;;;1.21;87.90;97598.15;418990;1315;111406;-40
2022/01/06 08:32:13;;;;;;;22.30;11.00;;;;;;;1.73;88.24;97613.98;418859;1314;97691;-40
2022/01/06 08:42:21;;;;;;;8.30;5.60;;;;;;;1.80;87.86;97638.90;419463;1314;108637;-40
2022/01/06 08:52:27;;;;;;;4.00;2.40;;;;;;;1.27;87.95;97678.65;419036;1314;97568;-41
2022/01/06 09:02:34;;;;;;;2.90;1.90;;;;;;;0.86;87.96;97695.38;419181;1315;111187;-39
2022/01/06 09:12:42;;;;;;;16.30;6.10;;;;;;;0.79;88.23;97712.64;419056;1314;109039;-38
2022/01/06 09:22:49;;;;;;;5.70;3.10;;;;;;;0.71;88.05;97727.89;418907;1314;97948;-40
2022/01/06 09:32:56;;;;;;;14.30;7.50;;;;;;;0.68;88.18;97737.60;418834;1315;108745;-40
2022/01/06 09:43:03;;;;;;;20.60;9.60;;;;;;;0.75;88.17;97754.20;419236;1315;97992;-40
2022/01/06 10:03:16;;;;;;;9.90;4.50;;;;;;;0.71;88.18;97777.75;419139;1314;108845;-39
2022/01/06 10:13:31;;;;;;;12.50;6.00;;;;;;;0.76;88.34;97787.91;419326;1314;98004;-39
2022/01/06 10:23:38;;;;;;;9.30;4.10;;;;;;;0.83;88.40;97798.85;419115;1315;108887;-39
2022/01/06 10:33:45;;;;;;;10.20;6.20;;;;;;;0.57;88.30;97806.59;418984;1317;98100;-40
2022/01/06 10:43:59;;;;;;;16.20;7.50;;;;;;;0.34;88.66;97822.86;419136;1314;111445;-40
2022/01/06 10:54:06;;;;;;;25.20;10.80;;;;;;;0.18;88.95;97832.16;418940;1315;109201;-41
2022/01/06 11:04:13;;;;;;;6.30;2.90;;;;;;;0.10;88.79;97852.66;419079;1315;97967;-40
2022/01/06 11:14:23;;;;;;;8.80;4.20;;;;;;;0.05;88.69;97866.92;419109;1315;108881;-42
2022/01/06 11:24:30;;;;;;;11.40;7.10;;;;;;;0.01;88.62;97876.71;419143;1314;97965;-41
2022/01/06 11:34:38;;;;;;;64.60;17.20;;;;;;;0.06;88.70;97887.64;419077;1317;111274;-39
2022/01/06 11:54:56;;;;;;;;;;;;;;;-0.58;84.51;97953.75;419065;1315;98117;-40
2022/01/06 12:05:04;;;;;;;7.40;3.00;;;;;;;-0.52;83.02;97975.77;419051;1317;111177;-39
2022/01/06 12:15:14;;;;;;;5.10;3.10;;;;;;;-0.51;79.93;97973.68;419174;1317;109093;-40
2022/01/06 12:46:05;;;;;;;23.40;4.00;;;;;;;-0.68;77.51;98029.45;419117;1315;108918;-40
2022/01/06 12:56:23;;;;;;;45.90;13.30;;;;;;;-0.54;78.68;98029.28;419267;1317;98051;-39
2022/01/06 13:06:32;;;;;;;21.30;8.50;;;;;;;-0.49;78.39;98045.19;419055;1314;111167;-38
2022/01/06 13:16:39;;;;;;;12.20;5.50;;;;;;;-0.58;77.56;98056.21;419179;1317;109349;-41
2022/01/06 13:57:18;;;;;;;19.80;8.90;;;;;;;-0.80;78.79;98141.95;419144;1317;96974;-40
2022/01/06 14:07:25;;;;;;;26.60;13.10;;;;;;;-0.84;79.30;98159.30;418176;1316;111204;-39
2022/01/06 14:17:32;;;;;;;24.80;12.80;;;;;;;-0.80;79.94;98181.90;419067;1315;108791;-39
2022/01/06 14:27:40;;;;;;;17.90;6.50;;;;;;;-0.93;80.60;98207.05;419295;1314;97570;-39
2022/01/06 14:37:46;;;;;;;10.10;4.50;;;;;;;-1.36;81.25;98223.29;415154;1315;5377503;-41
2022/01/06 14:47:52;;;;;;;11.70;4.60;;;;;;;-1.53;81.95;98239.64;418959;1315;108307;-43
2022/01/06 14:57:59;;;;;;;8.50;3.40;;;;;;;-1.58;82.07;98267.64;418886;1314;98093;-40
2022/01/06 15:08:04;;;;;;;17.20;5.70;;;;;;;-1.59;82.26;98290.10;419057;1314;107914;-40
2022/01/06 15:18:39;;;;;;;18.00;7.40;;;;;;;-1.66;82.27;98303.95;431539;1317;95075;-38
2022/01/06 15:28:47;;;;;;;16.90;4.10;;;;;;;-1.59;82.28;98319.49;433133;1317;96221;-38
2022/01/06 15:49:02;;;;;;;14.20;4.60;;;;;;;-1.50;82.26;98351.35;433272;1317;109415;-38
2022/01/06 15:59:09;;;;;;;7.40;3.00;;;;;;;-1.60;82.46;98359.59;430303;1317;109135;-38
2022/01/06 16:09:14;;;;;;;11.70;4.80;;;;;;;-1.69;82.40;98383.16;431195;1317;96109;-38
2022/01/06 16:19:21;;;;;;;10.80;3.30;;;;;;;-1.67;82.53;98394.24;429471;1317;96342;-38
2022/01/06 16:29:30;;;;;;;10.70;4.90;;;;;;;-1.70;82.63;98413.20;430543;1318;112543;-38
2022/01/06 16:39:40;;;;;;;15.60;5.90;;;;;;;-1.79;82.72;98430.19;431005;1317;108905;-38
2022/01/06 16:49:47;;;;;;;17.30;9.40;;;;;;;-1.79;82.52;98451.34;430382;1317;108854;-38
2022/01/06 16:59:54;;;;;;;6.40;3.10;;;;;;;-1.74;82.36;98459.98;429438;1318;96442;-38
2022/01/06 17:10:02;;;;;;;18.30;6.60;;;;;;;-1.74;82.45;98477.19;431089;1317;96301;-38
2022/01/06 17:20:10;;;;;;;10.90;3.90;;;;;;;-1.77;82.32;98490.67;430181;1316;112668;-38
2022/01/06 17:30:17;;;;;;;7.70;4.10;;;;;;;-1.73;82.01;98505.11;429543;1321;109219;-38
2022/01/06 17:40:25;;;;;;;12.70;4.50;;;;;;;-1.72;82.01;98516.59;429597;1321;108768;-38
2022/01/06 17:50:32;;;;;;;9.50;4.30;;;;;;;-1.83;81.88;98529.44;429229;1317;96152;-38
2022/01/06 18:00:41;;;;;;;7.30;3.20;;;;;;;-1.95;81.67;98552.02;431668;1317;96191;-38
2022/01/06 18:21:14;;;;;;;23.40;8.60;;;;;;;-1.91;81.75;98587.06;429768;1318;109027;-38
2022/01/06 18:31:22;;;;;;;21.60;7.60;;;;;;;-1.91;81.90;98599.85;430749;1317;107842;-38
2022/01/06 18:41:29;;;;;;;16.10;7.10;;;;;;;-1.83;81.72;98611.40;431423;1318;96403;-38
2022/01/06 18:51:38;;;;;;;9.60;5.40;;;;;;;-1.73;81.60;98629.25;428255;1318;96261;-38
2022/01/06 19:01:45;;;;;;;14.50;6.30;;;;;;;-1.74;81.71;98660.91;430700;1317;112646;-38
2022/01/06 19:11:53;;;;;;;10.70;4.30;;;;;;;-1.79;81.51;98685.23;428704;1317;109033;-39
2022/01/06 19:22:00;;;;;;;4.30;1.70;;;;;;;-1.77;80.37;98696.33;431686;1316;108869;-39
2022/01/06 19:32:08;;;;;;;7.50;2.40;;;;;;;-1.93;78.91;98704.25;432275;1318;96141;-38
2022/01/06 19:42:16;;;;;;;35.30;11.40;;;;;;;-2.18;79.03;98720.25;430299;1317;96120;-38
2022/01/06 19:52:22;;;;;;;22.40;8.10;;;;;;;-2.21;79.24;98726.59;429555;1316;111260;-38
2022/01/06 20:02:29;;;;;;;14.20;6.40;;;;;;;-2.14;78.96;98739.30;431177;1317;109051;-38
2022/01/06 20:12:35;;;;;;;20.80;8.20;;;;;;;-2.10;79.19;98750.29;429722;1318;106902;-38
2022/01/06 20:22:45;;;;;;;53.80;16.70;;;;;;;-2.10;79.43;98759.94;429892;1317;96852;-39
2022/01/06 20:32:53;;;;;;;26.00;9.40;;;;;;;-2.10;79.69;98787.92;431198;1317;95913;-38
2022/01/06 20:53:08;;;;;;;10.00;4.00;;;;;;;-1.97;79.28;98799.84;431722;1318;108955;-38
2022/01/06 21:03:17;;;;;;;23.40;9.80;;;;;;;-1.93;79.32;98800.91;430548;1317;109812;-38
2022/01/06 21:23:32;;;;;;;21.10;6.70;;;;;;;-2.08;79.46;98842.52;429127;1317;96226;-38
2022/01/06 21:33:40;;;;;;;24.40;10.50;;;;;;;-2.27;79.38;98860.47;432212;1317;112547;-40
2022/01/06 21:43:47;;;;;;;42.80;19.10;;;;;;;-2.50;79.37;98870.80;432339;1317;109088;-38
2022/01/06 21:53:55;;;;;;;33.20;14.60;;;;;;;-2.79;79.34;98886.30;429943;1317;108936;-38
2022/01/06 22:14:09;;;;;;;27.20;12.80;;;;;;;-3.28;79.47;98915.23;431282;1316;96261;-38
2022/01/06 22:24:16;;;;;;;13.40;6.90;;;;;;;-3.38;79.32;98928.55;433180;1317;112997;-38
2022/01/06 22:34:24;;;;;;;40.80;16.60;;;;;;;-3.57;79.60;98939.66;431721;1317;108778;-39
2022/01/06 22:44:31;;;;;;;33.80;12.90;;;;;;;-3.71;79.68;98945.17;426905;1318;5376309;-38
2022/01/06 22:54:39;;;;;;;26.30;10.20;;;;;;;-4.04;79.74;98949.35;431227;1317;96196;-38
2022/01/06 23:04:46;;;;;;;29.40;14.50;;;;;;;-4.19;80.08;98959.42;432085;1317;112502;-38
2022/01/06 23:14:53;;;;;;;26.30;10.30;;;;;;;-4.37;79.85;98964.35;429988;1317;108661;-38
2022/01/06 23:25:01;;;;;;;13.40;7.30;;;;;;;-4.47;80.20;98973.45;431862;1317;108964;-38
2022/01/06 23:35:10;;;;;;;14.10;5.90;;;;;;;-4.41;80.20;98969.52;429074;1317;96060;-38
2022/01/06 23:45:18;;;;;;;21.20;8.20;;;;;;;-4.37;80.13;98980.02;430298;1317;95823;-38
2022/01/06 23:55:25;;;;;;;17.90;9.30;;;;;;;-4.45;80.31;98978.79;430396;1317;111507;-38
